createdAt,value
2023-04-04T00:00:42.734Z,70.64
2023-04-04T00:01:42.556Z,70.12
2023-04-04T00:02:42.561Z,70.46
2023-04-04T00:03:42.577Z,70.78
2023-04-04T00:04:42.549Z,70.78
2023-04-04T00:05:42.524Z,70.36
2023-04-04T00:06:42.462Z,70.15
2023-04-04T00:07:42.493Z,70.56
2023-04-04T00:08:42.437Z,70.04
2023-04-04T00:09:42.465Z,69.81
2023-04-04T00:10:42.765Z,69.49
2023-04-04T00:11:42.439Z,69.59
2023-04-04T00:12:42.440Z,69.18
2023-04-04T00:13:42.385Z,68.97
2023-04-04T00:14:42.356Z,68.87
2023-04-04T00:15:42.384Z,69.38
2023-04-04T00:16:42.344Z,69.28
2023-04-04T00:17:42.386Z,69.59
2023-04-04T00:18:42.332Z,69.91
2023-04-04T00:19:42.304Z,70.25
2023-04-04T00:20:42.583Z,70.36
2023-04-04T00:21:42.300Z,70.25
2023-04-04T00:22:42.268Z,70.46
2023-04-04T00:23:42.314Z,69.73
2023-04-04T00:24:42.233Z,70.15
2023-04-04T00:25:42.247Z,70.46
2023-04-04T00:26:42.234Z,71.09
2023-04-04T00:27:42.228Z,70.98
2023-04-04T00:28:42.184Z,70.56
2023-04-04T00:29:42.209Z,70.25
2023-04-04T00:30:42.341Z,70.56
2023-04-04T00:31:42.211Z,70.78
2023-04-04T00:32:42.385Z,70.70
2023-04-04T00:33:42.143Z,70.81
2023-04-04T00:34:42.120Z,70.91
2023-04-04T00:35:42.281Z,71.43
2023-04-04T00:36:42.119Z,71.22
2023-04-04T00:37:42.114Z,71.43
2023-04-04T00:38:42.062Z,71.43
2023-04-04T00:39:42.073Z,71.43
2023-04-04T00:40:42.206Z,71.33
2023-04-04T00:41:42.055Z,71.01
2023-04-04T00:42:41.993Z,70.81
2023-04-04T00:43:42.019Z,70.39
2023-04-04T00:44:41.984Z,70.39
2023-04-04T00:45:42.019Z,70.81
2023-04-04T00:46:41.945Z,70.60
2023-04-04T00:47:41.982Z,70.50
2023-04-04T00:48:41.936Z,69.94
2023-04-04T00:49:41.966Z,70.04
2023-04-04T00:50:42.171Z,69.73
2023-04-04T00:51:41.970Z,69.53
2023-04-04T00:52:41.932Z,69.73
2023-04-04T00:53:41.932Z,70.36
2023-04-04T00:54:41.862Z,70.25
2023-04-04T00:55:41.903Z,70.39
2023-04-04T00:56:41.849Z,70.60
2023-04-04T00:57:41.831Z,70.39
2023-04-04T00:58:41.794Z,70.50
2023-04-04T00:59:41.862Z,70.70
2023-04-04T01:00:42.000Z,71.12
2023-04-04T01:01:41.935Z,70.28
2023-04-04T01:02:47.938Z,70.70
2023-04-04T01:03:41.763Z,70.91
2023-04-04T01:04:41.760Z,71.12
2023-04-04T01:05:41.763Z,70.81
2023-04-04T01:06:41.709Z,70.81
2023-04-04T01:07:41.710Z,70.81
2023-04-04T01:08:41.664Z,71.12
2023-04-04T01:09:41.701Z,71.33
2023-04-04T01:10:41.922Z,71.67
2023-04-04T01:11:41.644Z,72.09
2023-04-04T01:12:41.639Z,72.19
2023-04-04T01:13:41.619Z,71.78
2023-04-04T01:14:41.586Z,71.98
2023-04-04T01:15:41.595Z,72.19
2023-04-04T01:16:41.599Z,72.41
2023-04-04T01:17:41.606Z,71.98
2023-04-04T01:18:41.561Z,71.57
2023-04-04T01:19:41.536Z,72.30
2023-04-04T01:20:41.617Z,72.09
2023-04-04T01:21:41.514Z,72.30
2023-04-04T01:22:41.515Z,71.88
2023-04-04T01:23:41.490Z,72.30
2023-04-04T01:24:41.488Z,72.30
2023-04-04T01:25:41.467Z,72.51
2023-04-04T01:26:41.437Z,72.51
2023-04-04T01:27:41.446Z,72.75
2023-04-04T01:28:41.437Z,72.33
2023-04-04T01:29:41.402Z,72.75
2023-04-04T01:30:41.568Z,72.64
2023-04-04T01:31:41.423Z,72.33
2023-04-04T01:32:41.465Z,71.88
2023-04-04T01:33:41.375Z,72.19
2023-04-04T01:34:41.333Z,72.30
2023-04-04T01:35:41.347Z,72.54
2023-04-04T01:36:41.303Z,72.23
2023-04-04T01:37:41.321Z,72.85
2023-04-04T01:38:41.316Z,73.17
2023-04-04T01:39:41.315Z,73.38
2023-04-04T01:40:41.491Z,73.69
2023-04-04T01:41:41.263Z,73.38
2023-04-04T01:42:41.214Z,73.48
2023-04-04T01:43:41.259Z,73.83
2023-04-04T01:44:41.195Z,73.83
2023-04-04T01:45:41.226Z,73.93
2023-04-04T01:46:41.157Z,73.93
2023-04-04T01:47:41.221Z,73.93
2023-04-04T01:48:41.145Z,74.04
2023-04-04T01:49:41.162Z,74.04
2023-04-04T01:50:41.282Z,74.04
2023-04-04T01:51:41.128Z,74.24
2023-04-04T01:52:41.125Z,74.04
2023-04-04T01:53:41.106Z,73.93
2023-04-04T01:54:41.081Z,73.83
2023-04-04T01:55:41.080Z,73.83
2023-04-04T01:56:41.037Z,73.62
2023-04-04T01:57:41.084Z,73.62
2023-04-04T01:58:41.004Z,73.20
2023-04-04T01:59:41.029Z,73.62
2023-04-04T02:00:41.150Z,73.30
2023-04-04T02:01:41.105Z,73.20
2023-04-04T02:02:41.006Z,73.30
2023-04-04T02:03:41.043Z,73.10
2023-04-04T02:04:40.951Z,73.52
2023-04-04T02:05:40.973Z,73.62
2023-04-04T02:06:40.956Z,73.83
2023-04-04T02:07:40.958Z,73.83
2023-04-04T02:08:40.884Z,73.72
2023-04-04T02:09:40.909Z,73.83
2023-04-04T02:10:41.098Z,73.52
2023-04-04T02:11:40.873Z,73.20
2023-04-04T02:12:40.868Z,73.20
2023-04-04T02:13:40.866Z,73.30
2023-04-04T02:14:40.820Z,73.41
2023-04-04T02:15:40.889Z,73.52
2023-04-04T02:16:40.789Z,73.83
2023-04-04T02:17:40.800Z,74.04
2023-04-04T02:18:40.754Z,74.04
2023-04-04T02:19:40.758Z,73.83
2023-04-04T02:20:41.057Z,73.62
2023-04-04T02:21:40.753Z,73.41
2023-04-04T02:22:40.749Z,73.52
2023-04-04T02:23:40.730Z,73.41
2023-04-04T02:24:40.675Z,73.62
2023-04-04T02:25:40.684Z,73.93
2023-04-04T02:26:40.668Z,74.38
2023-04-04T02:27:40.683Z,74.49
2023-04-04T02:28:40.624Z,74.49
2023-04-04T02:29:40.629Z,75.15
2023-04-04T02:30:41.038Z,75.57
2023-04-04T02:31:40.708Z,75.46
2023-04-04T02:32:40.637Z,75.36
2023-04-04T02:33:40.589Z,75.36
2023-04-04T02:34:40.543Z,75.15
2023-04-04T02:35:40.583Z,75.46
2023-04-04T02:36:40.522Z,75.57
2023-04-04T02:37:40.561Z,75.78
2023-04-04T02:38:40.495Z,75.67
2023-04-04T02:39:40.521Z,75.88
2023-04-04T02:40:40.685Z,76.23
2023-04-04T02:41:40.466Z,76.12
2023-04-04T02:42:40.491Z,76.44
2023-04-04T02:43:40.442Z,76.33
2023-04-04T02:44:40.444Z,76.33
2023-04-04T02:45:40.437Z,76.23
2023-04-04T02:46:40.493Z,76.12
2023-04-04T02:47:40.463Z,76.44
2023-04-04T02:48:40.360Z,76.44
2023-04-04T02:49:40.406Z,76.23
2023-04-04T02:50:40.580Z,76.44
2023-04-04T02:51:40.361Z,76.44
2023-04-04T02:52:40.323Z,76.33
2023-04-04T02:53:40.323Z,76.54
2023-04-04T02:54:40.311Z,76.33
2023-04-04T02:55:40.320Z,76.54
2023-04-04T02:56:40.289Z,76.33
2023-04-04T02:57:40.295Z,76.23
2023-04-04T02:58:41.587Z,76.23
2023-04-04T02:59:40.259Z,76.23
2023-04-04T03:00:40.590Z,76.33
2023-04-04T03:01:40.265Z,76.65
2023-04-04T03:02:40.238Z,76.23
2023-04-04T03:03:40.258Z,76.12
2023-04-04T03:04:40.169Z,76.12
2023-04-04T03:05:40.170Z,76.12
2023-04-04T03:06:40.147Z,76.33
2023-04-04T03:07:40.141Z,76.23
2023-04-04T03:08:40.122Z,76.02
2023-04-04T03:09:40.113Z,75.92
2023-04-04T03:10:40.238Z,76.12
2023-04-04T03:11:40.099Z,76.12
2023-04-04T03:12:40.056Z,75.81
2023-04-04T03:13:40.155Z,76.02
2023-04-04T03:14:40.067Z,75.92
2023-04-04T03:15:40.062Z,76.12
2023-04-04T03:16:40.045Z,76.33
2023-04-04T03:17:40.836Z,76.23
2023-04-04T03:18:39.996Z,76.23
2023-04-04T03:19:39.990Z,76.02
2023-04-04T03:20:40.163Z,76.12
2023-04-04T03:21:39.977Z,76.23
2023-04-04T03:22:39.927Z,76.33
2023-04-04T03:23:39.992Z,76.65
2023-04-04T03:24:40.296Z,76.68
2023-04-04T03:25:39.927Z,76.68
2023-04-04T03:26:39.915Z,76.79
2023-04-04T03:27:39.881Z,76.79
2023-04-04T03:28:39.853Z,76.79
2023-04-04T03:29:39.860Z,76.89
2023-04-04T03:30:40.209Z,76.37
2023-04-04T03:31:39.872Z,76.54
2023-04-04T03:32:39.839Z,76.68
2023-04-04T03:33:39.810Z,76.57
2023-04-04T03:34:39.773Z,76.57
2023-04-04T03:35:39.964Z,76.47
2023-04-04T03:36:39.787Z,76.47
2023-04-04T03:37:39.743Z,76.06
2023-04-04T03:38:39.739Z,76.23
2023-04-04T03:39:39.718Z,76.47
2023-04-04T03:40:40.058Z,76.79
2023-04-04T03:41:39.713Z,77.00
2023-04-04T03:42:39.694Z,77.00
2023-04-04T03:43:39.677Z,76.89
2023-04-04T03:44:39.663Z,76.57
2023-04-04T03:45:39.651Z,76.47
2023-04-04T03:46:39.653Z,76.57
2023-04-04T03:47:39.647Z,76.16
2023-04-04T03:48:39.630Z,76.57
2023-04-04T03:49:39.582Z,76.16
2023-04-04T03:50:39.744Z,76.47
2023-04-04T03:51:39.562Z,76.37
2023-04-04T03:52:39.577Z,76.06
2023-04-04T03:53:39.567Z,75.84
2023-04-04T03:54:39.547Z,76.06
2023-04-04T03:55:39.490Z,76.47
2023-04-04T03:56:39.504Z,76.57
2023-04-04T03:57:39.479Z,76.89
2023-04-04T03:58:39.506Z,76.79
2023-04-04T03:59:39.490Z,76.26
2023-04-04T04:00:39.666Z,76.57
2023-04-04T04:01:39.411Z,76.47
2023-04-04T04:02:39.530Z,76.37
2023-04-04T04:03:39.452Z,76.89
2023-04-04T04:04:39.554Z,76.57
2023-04-04T04:05:39.384Z,76.57
2023-04-04T04:06:39.381Z,76.37
2023-04-04T04:07:39.369Z,76.16
2023-04-04T04:08:39.377Z,76.06
2023-04-04T04:09:39.311Z,75.95
2023-04-04T04:10:39.645Z,75.95
2023-04-04T04:11:39.323Z,75.53
2023-04-04T04:12:39.315Z,75.84
2023-04-04T04:13:39.274Z,76.26
2023-04-04T04:14:39.267Z,76.16
2023-04-04T04:15:39.273Z,75.95
2023-04-04T04:16:39.256Z,76.16
2023-04-04T04:17:39.252Z,76.26
2023-04-04T04:18:39.221Z,76.16
2023-04-04T04:19:39.188Z,76.47
2023-04-04T04:20:39.456Z,76.68
2023-04-04T04:21:39.163Z,76.57
2023-04-04T04:22:39.177Z,76.57
2023-04-04T04:23:39.164Z,76.89
2023-04-04T04:24:39.150Z,76.89
2023-04-04T04:25:39.118Z,76.79
2023-04-04T04:26:39.121Z,76.89
2023-04-04T04:27:39.094Z,76.93
2023-04-04T04:28:39.136Z,77.24
2023-04-04T04:29:39.083Z,77.45
2023-04-04T04:30:39.213Z,77.24
2023-04-04T04:31:39.100Z,77.03
2023-04-04T04:32:39.088Z,76.89
2023-04-04T04:33:39.011Z,77.03
2023-04-04T04:34:39.033Z,77.03
2023-04-04T04:35:39.085Z,77.45
2023-04-04T04:36:39.008Z,77.34
2023-04-04T04:37:38.989Z,77.24
2023-04-04T04:38:38.971Z,77.34
2023-04-04T04:39:38.963Z,77.03
2023-04-04T04:40:39.121Z,77.14
2023-04-04T04:41:38.907Z,77.14
2023-04-04T04:42:38.969Z,76.82
2023-04-04T04:43:38.890Z,76.68
2023-04-04T04:44:38.897Z,76.68
2023-04-04T04:45:38.877Z,76.72
2023-04-04T04:46:38.979Z,76.72
2023-04-04T04:47:38.893Z,76.82
2023-04-04T04:48:38.883Z,76.93
2023-04-04T04:49:38.842Z,77.03
2023-04-04T04:50:39.089Z,77.03
2023-04-04T04:51:38.780Z,77.14
2023-04-04T04:52:38.794Z,77.14
2023-04-04T04:53:38.796Z,77.03
2023-04-04T04:54:38.794Z,77.45
2023-04-04T04:55:38.727Z,77.87
2023-04-04T04:56:38.771Z,78.01
2023-04-04T04:57:38.723Z,77.59
2023-04-04T04:58:38.740Z,77.24
2023-04-04T04:59:38.715Z,77.66
2023-04-04T05:00:39.022Z,77.66
2023-04-04T05:01:38.744Z,77.45
2023-04-04T05:02:38.737Z,77.97
2023-04-04T05:03:38.653Z,77.80
2023-04-04T05:04:38.637Z,77.91
2023-04-04T05:05:38.612Z,77.69
2023-04-04T05:06:38.611Z,78.01
2023-04-04T05:07:38.585Z,78.22
2023-04-04T05:08:38.617Z,78.32
2023-04-04T05:09:38.554Z,78.32
2023-04-04T05:10:38.869Z,78.01
2023-04-04T05:11:38.526Z,78.32
2023-04-04T05:12:38.554Z,78.43
2023-04-04T05:13:38.538Z,78.22
2023-04-04T05:14:38.507Z,78.01
2023-04-04T05:15:38.465Z,78.11
2023-04-04T05:16:38.518Z,78.32
2023-04-04T05:17:38.560Z,78.11
2023-04-04T05:18:38.470Z,78.01
2023-04-04T05:19:38.478Z,78.01
2023-04-04T05:20:38.711Z,78.43
2023-04-04T05:21:38.402Z,78.53
2023-04-04T05:22:38.414Z,78.64
2023-04-04T05:23:38.361Z,78.64
2023-04-04T05:24:38.422Z,78.64
2023-04-04T05:25:38.352Z,78.85
2023-04-04T05:26:38.365Z,79.27
2023-04-04T05:27:38.308Z,78.95
2023-04-04T05:28:38.387Z,78.64
2023-04-04T05:29:38.287Z,79.05
2023-04-04T05:30:38.532Z,78.74
2023-04-04T05:31:38.330Z,79.05
2023-04-04T05:32:38.308Z,79.05
2023-04-04T05:33:38.263Z,79.16
2023-04-04T05:34:38.252Z,79.47
2023-04-04T05:35:38.294Z,79.37
2023-04-04T05:36:38.294Z,79.27
2023-04-04T05:37:38.215Z,79.05
2023-04-04T05:38:38.205Z,79.33
2023-04-04T05:39:38.191Z,79.13
2023-04-04T05:40:38.404Z,79.02
2023-04-04T05:41:38.163Z,79.13
2023-04-04T05:42:38.169Z,79.13
2023-04-04T05:43:38.106Z,79.33
2023-04-04T05:44:38.149Z,78.91
2023-04-04T05:45:40.485Z,78.70
2023-04-04T05:46:38.135Z,78.50
2023-04-04T05:47:38.206Z,78.46
2023-04-04T05:48:38.074Z,78.36
2023-04-04T05:49:38.046Z,77.73
2023-04-04T05:50:38.274Z,77.94
2023-04-04T05:51:38.031Z,78.15
2023-04-04T05:52:38.042Z,78.46
2023-04-04T05:53:37.987Z,78.36
2023-04-04T05:54:37.990Z,77.94
2023-04-04T05:55:37.969Z,78.15
2023-04-04T05:56:37.972Z,78.36
2023-04-04T05:57:37.979Z,77.69
2023-04-04T05:58:37.960Z,77.38
2023-04-04T05:59:37.911Z,77.59
2023-04-04T06:00:38.423Z,77.38
2023-04-04T06:01:37.911Z,77.80
2023-04-04T06:02:37.982Z,77.80
2023-04-04T06:03:38.150Z,77.90
2023-04-04T06:04:37.874Z,78.08
2023-04-04T06:05:37.864Z,77.87
2023-04-04T06:06:37.874Z,77.55
2023-04-04T06:07:37.813Z,77.34
2023-04-04T06:08:50.570Z,76.82
2023-04-04T06:09:37.774Z,77.14
2023-04-04T06:10:38.224Z,77.45
2023-04-04T06:11:37.798Z,77.97
2023-04-04T06:12:37.767Z,77.55
2023-04-04T06:13:37.734Z,77.03
2023-04-04T06:14:37.760Z,76.79
2023-04-04T06:15:37.744Z,76.89
2023-04-04T06:16:37.783Z,76.16
2023-04-04T06:17:37.756Z,76.47
2023-04-04T06:18:37.703Z,77.10
2023-04-04T06:19:37.681Z,76.47
2023-04-04T06:20:37.961Z,76.26
2023-04-04T06:21:37.627Z,75.63
2023-04-04T06:22:37.682Z,76.12
2023-04-04T06:23:37.726Z,75.92
2023-04-04T06:24:37.854Z,75.29
2023-04-04T06:25:37.645Z,75.18
2023-04-04T06:26:37.607Z,75.71
2023-04-04T06:27:37.575Z,76.33
2023-04-04T06:28:37.571Z,76.44
2023-04-04T06:29:37.531Z,76.20
2023-04-04T06:30:38.036Z,76.30
2023-04-04T06:31:37.554Z,75.26
2023-04-04T06:32:37.559Z,74.84
2023-04-04T06:33:37.478Z,75.26
2023-04-04T06:34:37.541Z,74.32
2023-04-04T06:35:37.454Z,74.21
2023-04-04T06:36:37.485Z,73.90
2023-04-04T06:37:37.446Z,74.52
2023-04-04T06:38:37.461Z,75.01
2023-04-04T06:39:37.402Z,74.91
2023-04-04T06:40:37.609Z,74.91
2023-04-04T06:41:37.408Z,74.38
2023-04-04T06:42:37.393Z,73.66
2023-04-04T06:43:37.352Z,72.19
2023-04-04T06:44:37.372Z,71.98
2023-04-04T06:45:37.328Z,73.45
2023-04-04T06:46:37.398Z,73.13
2023-04-04T06:47:37.364Z,72.51
2023-04-04T06:48:37.348Z,73.00
2023-04-04T06:49:37.275Z,73.00
2023-04-04T06:50:37.392Z,74.15
2023-04-04T06:51:37.249Z,75.08
2023-04-04T06:52:39.581Z,73.38
2023-04-04T06:53:37.213Z,73.17
2023-04-04T06:54:37.268Z,72.24
2023-04-04T06:55:37.219Z,71.81
2023-04-04T06:56:37.202Z,71.61
2023-04-04T06:57:37.176Z,70.98
2023-04-04T06:58:37.174Z,70.12
2023-04-04T06:59:37.155Z,70.64
2023-04-04T07:00:37.401Z,70.53
2023-04-04T07:01:37.260Z,71.37
2023-04-04T07:02:37.306Z,71.58
2023-04-04T07:03:37.089Z,70.32
2023-04-04T07:04:37.111Z,69.91
2023-04-04T07:05:37.100Z,69.59
2023-04-04T07:06:37.082Z,70.22
2023-04-04T07:07:37.037Z,71.65
2023-04-04T07:08:37.274Z,73.00
2023-04-04T07:09:37.068Z,72.17
2023-04-04T07:10:38.054Z,69.46
2023-04-04T07:11:36.994Z,70.40
2023-04-04T07:12:37.030Z,69.67
2023-04-04T07:13:36.973Z,70.78
2023-04-04T07:14:37.010Z,71.61
2023-04-04T07:15:36.964Z,71.82
2023-04-04T07:16:36.985Z,71.20
2023-04-04T07:17:36.947Z,70.26
2023-04-04T07:18:36.930Z,68.60
2023-04-04T07:19:36.876Z,70.02
2023-04-04T07:20:37.163Z,69.40
2023-04-04T07:21:36.837Z,68.15
2023-04-04T07:22:36.889Z,65.83
2023-04-04T07:23:36.850Z,67.49
2023-04-04T07:24:36.836Z,68.32
2023-04-04T07:25:36.812Z,68.22
2023-04-04T07:26:36.818Z,68.01
2023-04-04T07:27:36.814Z,65.83
2023-04-04T07:28:36.778Z,65.41
2023-04-04T07:29:36.762Z,67.60
2023-04-04T07:30:36.766Z,66.84
2023-04-04T07:31:36.792Z,67.46
2023-04-04T07:32:36.755Z,67.67
2023-04-04T07:33:36.696Z,66.60
2023-04-04T07:34:36.738Z,64.42
2023-04-04T07:35:36.730Z,66.71
2023-04-04T07:36:36.704Z,67.22
2023-04-04T07:37:36.635Z,67.19
2023-04-04T07:38:36.662Z,68.13
2023-04-04T07:39:36.628Z,66.36
2023-04-04T07:40:36.699Z,66.54
2023-04-04T07:41:36.592Z,65.39
2023-04-04T07:42:36.634Z,63.63
2023-04-04T07:43:36.582Z,63.60
2023-04-04T07:44:36.585Z,63.40
2023-04-04T07:45:36.544Z,63.84
2023-04-04T07:46:36.590Z,63.21
2023-04-04T07:47:36.569Z,64.28
2023-04-04T07:48:36.538Z,63.45
2023-04-04T07:49:36.507Z,64.46
2023-04-04T07:50:36.509Z,64.54
2023-04-04T07:51:36.457Z,64.23
2023-04-04T07:52:36.500Z,62.54
2023-04-04T07:53:36.484Z,61.05
2023-04-04T07:54:36.444Z,62.12
2023-04-04T07:55:36.458Z,62.02
2023-04-04T07:56:36.399Z,62.64
2023-04-04T07:57:36.417Z,63.26
2023-04-04T07:58:36.408Z,64.30
2023-04-04T07:59:36.372Z,61.05
2023-04-04T08:00:36.370Z,60.82
2023-04-04T08:01:36.351Z,60.41
2023-04-04T08:02:36.465Z,62.79
2023-04-04T08:03:36.464Z,63.79
2023-04-04T08:04:36.315Z,60.89
2023-04-04T08:05:36.324Z,59.99
2023-04-04T08:06:36.294Z,59.16
2023-04-04T08:07:36.281Z,59.45
2023-04-04T08:08:36.241Z,59.45
2023-04-04T08:09:36.269Z,58.62
2023-04-04T08:10:36.212Z,58.07
2023-04-04T08:11:36.249Z,60.04
2023-04-04T08:12:36.257Z,60.04
2023-04-04T08:13:36.237Z,60.66
2023-04-04T08:14:36.174Z,58.80
2023-04-04T08:15:36.274Z,59.45
2023-04-04T08:16:36.145Z,60.61
2023-04-04T08:17:36.181Z,61.21
2023-04-04T08:18:36.108Z,60.46
2023-04-04T08:19:36.111Z,58.59
2023-04-04T08:20:36.080Z,57.63
2023-04-04T08:21:36.124Z,55.56
2023-04-04T08:22:36.073Z,56.49
2023-04-04T08:23:36.100Z,57.42
2023-04-04T08:24:36.069Z,57.09
2023-04-04T08:25:36.045Z,57.60
2023-04-04T08:26:36.010Z,59.26
2023-04-04T08:27:36.050Z,57.94
2023-04-04T08:28:36.059Z,61.15
2023-04-04T08:29:35.970Z,61.05
2023-04-04T08:30:35.970Z,58.74
2023-04-04T08:31:36.079Z,58.56
2023-04-04T08:32:35.951Z,59.39
2023-04-04T08:33:46.741Z,59.78
2023-04-04T08:34:35.940Z,59.85
2023-04-04T08:35:35.914Z,60.65
2023-04-04T08:36:35.875Z,57.94
2023-04-04T08:37:35.911Z,55.98
2023-04-04T08:38:35.851Z,56.73
2023-04-04T08:39:35.922Z,57.45
2023-04-04T08:40:35.842Z,58.45
2023-04-04T08:41:35.831Z,57.65
2023-04-04T08:42:35.814Z,58.89
2023-04-04T08:43:35.800Z,56.93
2023-04-04T08:44:35.794Z,57.17
2023-04-04T08:45:35.797Z,58.40
2023-04-04T08:46:35.802Z,57.65
2023-04-04T08:47:35.791Z,57.21
2023-04-04T08:48:35.758Z,54.74
2023-04-04T08:49:35.754Z,53.81
2023-04-04T08:50:35.729Z,55.33
2023-04-04T08:51:35.700Z,54.40
2023-04-04T08:52:35.664Z,55.66
2023-04-04T08:53:35.690Z,56.18
2023-04-04T08:54:35.665Z,57.14
2023-04-04T08:55:35.664Z,58.59
2023-04-04T08:56:35.612Z,56.85
2023-04-04T08:57:35.614Z,56.83
2023-04-04T08:58:35.592Z,56.03
2023-04-04T08:59:35.755Z,57.27
2023-04-04T09:00:35.614Z,56.47
2023-04-04T09:01:35.573Z,55.12
2023-04-04T09:02:35.599Z,58.09
2023-04-04T09:03:35.670Z,58.59
2023-04-04T09:04:35.537Z,58.97
2023-04-04T09:05:35.540Z,59.08
2023-04-04T09:06:35.603Z,55.38
2023-04-04T09:07:38.616Z,56.62
2023-04-04T09:08:35.464Z,55.72
2023-04-04T09:09:35.506Z,56.54
2023-04-04T09:10:35.445Z,54.89
2023-04-04T09:11:35.450Z,57.48
2023-04-04T09:12:35.407Z,56.34
2023-04-04T09:13:35.438Z,56.65
2023-04-04T09:14:35.375Z,57.11
2023-04-04T09:15:35.392Z,53.29
2023-04-04T09:16:35.385Z,54.71
2023-04-04T09:17:35.377Z,57.68
2023-04-04T09:18:35.313Z,55.93
2023-04-04T09:19:35.364Z,55.90
2023-04-04T09:20:35.305Z,55.20
2023-04-04T09:21:35.313Z,56.05
2023-04-04T09:22:35.299Z,56.37
2023-04-04T09:23:35.486Z,57.91
2023-04-04T09:24:35.255Z,56.26
2023-04-04T09:25:35.261Z,57.89
2023-04-04T09:26:35.228Z,57.89
2023-04-04T09:27:35.236Z,56.98
2023-04-04T09:28:35.216Z,56.81
2023-04-04T09:29:35.236Z,56.41
2023-04-04T09:30:35.164Z,56.21
2023-04-04T09:31:35.246Z,57.01
2023-04-04T09:32:35.170Z,55.66
2023-04-04T09:33:35.169Z,54.71
2023-04-04T09:34:35.122Z,56.46
2023-04-04T09:35:35.147Z,53.03
2023-04-04T09:36:35.109Z,51.23
2023-04-04T09:37:35.118Z,53.58
2023-04-04T09:38:35.064Z,54.02
2023-04-04T09:39:35.133Z,55.62
2023-04-04T09:40:35.093Z,56.16
2023-04-04T09:41:35.075Z,55.02
2023-04-04T09:42:35.035Z,56.88
2023-04-04T09:43:35.702Z,55.74
2023-04-04T09:44:35.014Z,56.57
2023-04-04T09:45:34.988Z,57.09
2023-04-04T09:46:34.994Z,54.38
2023-04-04T09:47:35.010Z,52.83
2023-04-04T09:48:34.953Z,53.55
2023-04-04T09:49:34.941Z,53.22
2023-04-04T09:50:34.904Z,52.58
2023-04-04T09:51:34.944Z,53.30
2023-04-04T09:52:34.876Z,52.14
2023-04-04T09:53:34.888Z,53.78
2023-04-04T09:54:34.847Z,52.11
2023-04-04T09:55:34.929Z,51.57
2023-04-04T09:56:34.834Z,50.62
2023-04-04T09:57:34.856Z,52.19
2023-04-04T09:58:34.809Z,52.66
2023-04-04T09:59:34.854Z,52.47
2023-04-04T10:00:34.750Z,53.74
2023-04-04T10:01:35.694Z,53.45
2023-04-04T10:02:34.798Z,52.44
2023-04-04T10:03:34.760Z,51.92
2023-04-04T10:04:34.740Z,55.20
2023-04-04T10:05:34.756Z,55.93
2023-04-04T10:06:34.728Z,55.28
2023-04-04T10:07:34.708Z,57.24
2023-04-04T10:08:34.687Z,55.77
2023-04-04T10:09:34.664Z,54.61
2023-04-04T10:10:34.629Z,55.64
2023-04-04T10:11:34.641Z,55.23
2023-04-04T10:12:34.644Z,53.66
2023-04-04T10:13:34.610Z,51.39
2023-04-04T10:14:34.632Z,52.40
2023-04-04T10:15:34.592Z,51.78
2023-04-04T10:16:34.608Z,52.94
2023-04-04T10:17:34.598Z,51.09
2023-04-04T10:18:34.560Z,55.95
2023-04-04T10:19:34.590Z,51.62
2023-04-04T10:20:34.515Z,50.95
2023-04-04T10:21:34.522Z,54.84
2023-04-04T10:22:34.463Z,56.46
2023-04-04T10:23:34.493Z,55.62
2023-04-04T10:24:34.461Z,55.41
2023-04-04T10:25:34.445Z,55.13
2023-04-04T10:26:34.472Z,56.05
2023-04-04T10:27:34.457Z,56.54
2023-04-04T10:28:34.471Z,54.05
2023-04-04T10:29:34.385Z,51.65
2023-04-04T10:30:34.366Z,49.00
2023-04-04T10:31:34.479Z,49.62
2023-04-04T10:32:34.403Z,51.26
2023-04-04T10:33:34.363Z,52.03
2023-04-04T10:34:34.326Z,52.98
2023-04-04T10:35:34.352Z,52.58
2023-04-04T10:36:34.288Z,52.37
2023-04-04T10:37:34.341Z,54.12
2023-04-04T10:38:34.252Z,56.08
2023-04-04T10:39:34.273Z,55.57
2023-04-04T10:40:34.246Z,54.22
2023-04-04T10:41:34.242Z,52.76
2023-04-04T10:42:34.245Z,57.26
2023-04-04T10:43:34.226Z,54.90
2023-04-04T10:44:34.241Z,52.47
2023-04-04T10:45:34.205Z,55.36
2023-04-04T10:46:34.236Z,53.71
2023-04-04T10:47:34.229Z,54.94
2023-04-04T10:48:34.147Z,55.05
2023-04-04T10:49:34.166Z,55.77
2023-04-04T10:50:34.109Z,51.65
2023-04-04T10:51:42.006Z,51.03
2023-04-04T10:52:34.113Z,52.78
2023-04-04T10:53:34.116Z,55.36
2023-04-04T10:54:34.046Z,54.02
2023-04-04T10:55:34.078Z,51.54
2023-04-04T10:56:34.019Z,54.64
2023-04-04T10:57:34.025Z,53.61
2023-04-04T10:58:34.033Z,53.71
2023-04-04T10:59:34.161Z,55.57
2023-04-04T11:00:34.023Z,53.61
2023-04-04T11:01:33.981Z,55.43
2023-04-04T11:02:33.974Z,54.58
2023-04-04T11:03:33.978Z,53.14
2023-04-04T11:04:33.994Z,54.20
2023-04-04T11:05:33.920Z,52.76
2023-04-04T11:06:33.882Z,52.53
2023-04-04T11:07:33.894Z,52.01
2023-04-04T11:08:33.908Z,55.21
2023-04-04T11:09:33.879Z,55.51
2023-04-04T11:10:33.904Z,52.71
2023-04-04T11:11:33.853Z,53.02
2023-04-04T11:12:33.845Z,51.06
2023-04-04T11:13:33.854Z,51.96
2023-04-04T11:14:33.842Z,53.94
2023-04-04T11:15:33.832Z,51.70
2023-04-04T11:16:33.872Z,53.27
2023-04-04T11:17:33.791Z,51.42
2023-04-04T11:18:34.389Z,53.68
2023-04-04T11:19:33.757Z,56.54
2023-04-04T11:20:33.735Z,54.28
2023-04-04T11:21:33.743Z,55.07
2023-04-04T11:22:33.688Z,53.43
2023-04-04T11:23:33.711Z,51.55
2023-04-04T11:24:33.660Z,55.87
2023-04-04T11:25:33.743Z,53.20
2023-04-04T11:26:33.663Z,53.63
2023-04-04T11:27:33.699Z,50.75
2023-04-04T11:28:33.604Z,51.78
2023-04-04T11:29:33.624Z,51.06
2023-04-04T11:30:33.618Z,50.54
2023-04-04T11:31:33.678Z,52.01
2023-04-04T11:32:33.619Z,52.71
2023-04-04T11:33:33.644Z,51.98
2023-04-04T11:34:33.574Z,49.90
2023-04-04T11:35:33.588Z,50.42
2023-04-04T11:36:33.541Z,52.14
2023-04-04T11:37:33.529Z,49.68
2023-04-04T11:38:33.486Z,51.55
2023-04-04T11:39:33.492Z,47.45
2023-04-04T11:40:33.459Z,48.28
2023-04-04T11:41:33.487Z,52.09
2023-04-04T11:42:33.430Z,54.66
2023-04-04T11:43:33.438Z,52.27
2023-04-04T11:44:33.439Z,50.11
2023-04-04T11:45:33.441Z,49.93
2023-04-04T11:46:33.424Z,51.98
2023-04-04T11:47:34.326Z,53.92
2023-04-04T11:48:33.357Z,52.99
2023-04-04T11:49:33.399Z,53.69
2023-04-04T11:50:33.352Z,54.51
2023-04-04T11:51:33.389Z,52.14
2023-04-04T11:52:33.342Z,53.50
2023-04-04T11:53:33.342Z,52.58
2023-04-04T11:54:33.278Z,52.37
2023-04-04T11:55:33.308Z,51.24
2023-04-04T11:56:33.264Z,51.55
2023-04-04T11:57:33.314Z,51.45
2023-04-04T11:58:33.231Z,52.69
2023-04-04T11:59:33.274Z,54.94
2023-04-04T12:00:33.223Z,52.66
2023-04-04T12:01:33.216Z,49.39
2023-04-04T12:02:33.250Z,49.49
2023-04-04T12:03:33.329Z,50.62
2023-04-04T12:04:33.755Z,53.48
2023-04-04T12:05:33.271Z,54.51
2023-04-04T12:06:33.159Z,53.05
2023-04-04T12:07:33.184Z,52.12
2023-04-04T12:08:33.120Z,51.12
2023-04-04T12:09:33.118Z,52.48
2023-04-04T12:10:33.099Z,53.69
2023-04-04T12:11:33.075Z,49.78
2023-04-04T12:12:33.077Z,53.79
2023-04-04T12:13:33.056Z,53.35
2023-04-04T12:14:33.098Z,52.94
2023-04-04T12:15:33.000Z,49.35
2023-04-04T12:16:33.624Z,49.35
2023-04-04T12:17:33.003Z,48.13
2023-04-04T12:18:32.992Z,47.41
2023-04-04T12:19:32.987Z,50.40
2023-04-04T12:20:32.989Z,50.40
2023-04-04T12:21:32.925Z,46.92
2023-04-04T12:22:32.967Z,47.31
2023-04-04T12:23:32.909Z,48.44
2023-04-04T12:24:32.934Z,50.19
2023-04-04T12:25:32.951Z,46.69
2023-04-04T12:26:32.896Z,51.12
2023-04-04T12:27:32.849Z,52.94
2023-04-04T12:28:32.866Z,52.43
2023-04-04T12:29:32.827Z,50.56
2023-04-04T12:30:32.871Z,53.02
2023-04-04T12:31:32.874Z,49.73
2023-04-04T12:32:32.838Z,50.24
2023-04-04T12:33:32.781Z,50.96
2023-04-04T12:34:32.777Z,51.17
2023-04-04T12:35:32.774Z,50.58
2023-04-04T12:36:32.770Z,49.44
2023-04-04T12:37:32.734Z,51.92
2023-04-04T12:38:32.744Z,50.89
2023-04-04T12:39:32.690Z,50.58
2023-04-04T12:40:32.747Z,52.53
2023-04-04T12:41:32.657Z,51.92
2023-04-04T12:42:32.684Z,48.63
2023-04-04T12:43:32.653Z,48.93
2023-04-04T12:44:32.646Z,49.44
2023-04-04T12:45:32.635Z,50.29
2023-04-04T12:46:32.763Z,49.26
2023-04-04T12:47:32.621Z,49.68
2023-04-04T12:48:32.598Z,54.17
2023-04-04T12:49:32.542Z,52.22
2023-04-04T12:50:32.582Z,51.48
2023-04-04T12:51:32.532Z,52.59
2023-04-04T12:52:32.917Z,49.30